Time;durP1;ratioP1;P1;durP2;ratioP2;P2;SDS_P1;SDS_P2;PMS_P1;PMS_P2;Temp;Humidity;BMP_temperature;BMP_pressure;BME280_temperature;BME280_humidity;BME280_pressure;Samples;Min_cycle;Max_cycle;Signal;HPM_P1;HPM_P2
2022/05/13 00:00:22;;;;;;;;;;;;;;;15.86;88.73;97198.34;30002;982;1864;-64
2022/05/13 00:00:53;;;;;;;;;;;;;;;15.87;88.42;97194.47;30002;982;1873;-62
2022/05/13 00:01:24;;;;;;;;;;;;;;;15.88;88.06;97193.34;30002;982;1877;-63
2022/05/13 00:01:58;;;;;;;;;;;;;;;15.87;87.94;97197.22;30002;983;1868;-64
2022/05/13 00:02:29;;;;;;;;;;;;;;;15.88;87.99;97196.09;30002;983;1868;-64
2022/05/13 00:03:00;;;;;;;;;;;;;;;15.88;87.96;97195.28;30002;983;1881;-64
2022/05/13 00:03:31;;;;;;;;;;;;;;;15.88;87.90;97196.09;30002;983;1877;-64
2022/05/13 00:04:02;;;;;;;;;;;;;;;15.87;87.86;97194.47;30002;983;1881;-63
2022/05/13 00:04:33;;;;;;;;;;;;;;;15.87;87.61;97194.47;30002;983;1877;-63
2022/05/13 00:05:05;;;;;;;;;;;;;;;15.86;87.70;97192.88;30002;983;1881;-63
2022/05/13 00:05:36;;;;;;;;;;;;;;;15.87;87.62;97199.94;30002;983;1877;-62
2022/05/13 00:06:08;;;;;;;;;;;;;;;15.87;87.74;97194.47;30002;983;1882;-65
2022/05/13 00:06:39;;;;;;;;;;;;;;;15.88;87.66;97200.75;30002;983;1877;-64
2022/05/13 00:07:11;;;;;;;;;;;;;;;15.88;87.33;97196.09;30002;982;1869;-63
2022/05/13 00:07:42;;;;;;;;;;;;;;;15.89;87.46;97197.69;30002;982;1869;-63
2022/05/13 00:08:12;;;;;;;;;;;;;;;15.89;87.19;97192.22;30002;986;1873;-65
2022/05/13 00:08:44;;;;;;;;;;;;;;;15.89;87.31;97197.69;30002;982;1882;-62
2022/05/13 00:09:15;;;;;;;;;;;;;;;15.90;87.41;97195.78;30002;986;1868;-64
2022/05/13 00:09:57;;;;;;;;;;;;;;;15.88;86.98;97196.09;30002;983;1828;-63
2022/05/13 00:10:28;;;;;;;;;;;;;;;15.90;86.96;97187.56;30002;983;1855;-65
2022/05/13 00:10:59;;;;;;;;;;;;;;;15.91;87.24;97194.66;30002;983;1881;-64
2022/05/13 00:11:30;;;;;;;;;;;;;;;15.92;87.35;97193.53;30002;983;1877;-64
2022/05/13 00:12:03;;;;;;;;;;;;;;;15.92;87.14;97197.06;30002;983;1881;-65
2022/05/13 00:12:35;;;;;;;;;;;;;;;15.92;87.57;97188.84;30002;983;1877;-64
2022/05/13 00:13:08;;;;;;;;;;;;;;;15.92;87.68;97191.59;30002;983;1882;-65
2022/05/13 00:13:39;;;;;;;;;;;;;;;15.91;87.37;97183.69;30002;983;1877;-65
2022/05/13 00:14:10;;;;;;;;;;;;;;;15.91;87.39;97189.16;30002;983;1882;-64
2022/05/13 00:14:42;;;;;;;;;;;;;;;15.90;87.23;97188.37;30002;982;1877;-65
2022/05/13 00:15:18;;;;;;;;;;;;;;;15.91;87.28;97186.44;30002;982;1882;-63
2022/05/13 00:15:51;;;;;;;;;;;;;;;15.91;87.52;97191.91;30002;982;1864;-64
2022/05/13 00:16:22;;;;;;;;;;;;;;;15.91;87.56;97189.97;30002;986;1873;-63
2022/05/13 00:16:53;;;;;;;;;;;;;;;15.90;87.21;97188.37;30002;983;1877;-63
2022/05/13 00:17:25;;;;;;;;;;;;;;;15.90;87.40;97191.09;30002;983;1881;-64
2022/05/13 00:17:56;;;;;;;;;;;;;;;15.90;87.12;97188.37;30002;983;1877;-62
2022/05/13 00:18:30;;;;;;;;;;;;;;;15.90;87.16;97188.37;30002;983;1881;-63
2022/05/13 00:19:04;;;;;;;;;;;;;;;15.90;87.16;97188.37;30002;983;1877;-64
2022/05/13 00:19:35;;;;;;;;;;;;;;;15.90;87.32;97184.81;30002;983;1881;-64
2022/05/13 00:20:08;;;;;;;;;;;;;;;15.91;87.06;97186.44;30002;983;1877;-62
2022/05/13 00:20:39;;;;;;;;;;;;;;;15.91;87.33;97186.44;30001;983;1882;-64
2022/05/13 00:21:13;;;;;;;;;;;;;;;15.92;87.10;97186.13;30001;982;1864;-64
2022/05/13 00:21:44;;;;;;;;;;;;;;;15.92;87.26;97183.38;30002;982;1873;-64
2022/05/13 00:22:16;;;;;;;;;;;;;;;15.93;87.31;97192.41;30001;982;1877;-64
2022/05/13 00:22:54;;;;;;;;;;;;;;;15.93;87.18;97186.91;30001;982;1882;-64
2022/05/13 00:23:25;;;;;;;;;;;;;;;15.93;86.94;97187.72;30001;982;1877;-63
2022/05/13 00:23:56;;;;;;;;;;;;;;;15.94;87.19;97188.53;30001;982;1882;-64
2022/05/13 00:24:27;;;;;;;;;;;;;;;15.94;87.62;97189.31;30001;983;1877;-65
2022/05/13 00:24:59;;;;;;;;;;;;;;;15.94;87.23;97194.78;30001;983;1881;-65
2022/05/13 00:25:32;;;;;;;;;;;;;;;15.93;87.59;97182.25;30001;983;1877;-64
2022/05/13 00:26:02;;;;;;;;;;;;;;;15.95;87.67;97190.91;30001;983;1881;-64
2022/05/13 00:26:34;;;;;;;;;;;;;;;15.94;87.42;97188.53;30001;983;1864;-64
2022/05/13 00:27:06;;;;;;;;;;;;;;;15.95;87.41;97187.38;30001;983;1872;-64
2022/05/13 00:27:37;;;;;;;;;;;;;;;15.95;87.48;97188.19;30001;983;1877;-65
2022/05/13 00:28:09;;;;;;;;;;;;;;;15.96;87.22;97187.06;30001;983;1882;-64
2022/05/13 00:28:40;;;;;;;;;;;;;;;15.95;86.99;97193.66;30001;982;1877;-65
2022/05/13 00:29:11;;;;;;;;;;;;;;;15.97;87.18;97188.66;30001;982;1881;-64
2022/05/13 00:29:44;;;;;;;;;;;;;;;15.97;87.19;97182.41;30001;982;1877;-64
2022/05/13 00:30:16;;;;;;;;;;;;;;;15.97;87.17;97182.41;30001;982;1882;-64
2022/05/13 00:30:48;;;;;;;;;;;;;;;15.97;87.86;97185.12;30001;982;1877;-64
2022/05/13 00:31:19;;;;;;;;;;;;;;;15.95;87.79;97190.13;30001;982;1882;-64
2022/05/13 00:31:50;;;;;;;;;;;;;;;15.96;87.52;97191.72;30002;982;1754;-64
2022/05/13 00:32:20;;;;;;;;;;;;;;;15.95;87.45;97188.19;30001;983;1872;-64
2022/05/13 00:32:51;;;;;;;;;;;;;;;15.98;87.67;97187.53;30001;983;1877;-65
2022/05/13 00:33:22;;;;;;;;;;;;;;;16.00;87.06;97190.78;30001;983;1881;-64
2022/05/13 00:33:53;;;;;;;;;;;;;;;16.00;87.01;97182.56;30001;983;1877;-63
2022/05/13 00:34:25;;;;;;;;;;;;;;;16.00;86.80;97182.56;30001;983;1881;-64
2022/05/13 00:34:56;;;;;;;;;;;;;;;16.01;86.49;97189.66;30001;983;1877;-64
2022/05/13 00:35:27;;;;;;;;;;;;;;;16.02;86.43;97190.44;30001;983;1882;-63
2022/05/13 00:35:58;;;;;;;;;;;;;;;16.02;86.48;97177.56;30001;983;1877;-64
2022/05/13 00:36:30;;;;;;;;;;;;;;;16.02;86.28;97183.06;30001;982;1882;-64
2022/05/13 00:37:01;;;;;;;;;;;;;;;16.02;86.04;97183.06;30001;982;1864;-64
2022/05/13 00:37:32;;;;;;;;;;;;;;;16.01;86.34;97184.19;30001;982;1873;-63
2022/05/13 00:38:05;;;;;;;;;;;;;;;15.99;86.58;97175.47;30001;982;1878;-66
2022/05/13 00:38:36;;;;;;;;;;;;;;;16.00;86.49;97179.81;30001;982;1882;-63
2022/05/13 00:39:07;;;;;;;;;;;;;;;16.00;86.56;97177.09;30001;982;1877;-64
2022/05/13 00:39:37;;;;;;;;;;;;;;;15.99;86.49;97175.47;30001;983;1881;-64
2022/05/13 00:40:10;;;;;;;;;;;;;;;15.99;86.79;97180.94;30001;983;1877;-64
2022/05/13 00:40:42;;;;;;;;;;;;;;;15.98;86.69;97178.53;30001;983;1881;-63
2022/05/13 00:41:13;;;;;;;;;;;;;;;15.96;86.61;97181.59;30001;983;1877;-64
2022/05/13 00:41:44;;;;;;;;;;;;;;;15.96;86.56;97184.31;30001;969;1902;-64
2022/05/13 00:42:17;;;;;;;;;;;;;;;15.95;87.06;97177.25;30001;983;1864;-64
2022/05/13 00:42:49;;;;;;;;;;;;;;;15.95;86.82;97179.97;30001;983;1873;-65
2022/05/13 00:43:37;;;;;;;;;;;;;;;15.94;87.38;97183.84;30001;983;1877;-64
2022/05/13 00:44:09;;;;;;;;;;;;;;;15.93;88.01;97179.53;30001;982;1873;-64
2022/05/13 00:44:40;;;;;;;;;;;;;;;15.94;88.17;97185.81;30001;982;1877;-65
2022/05/13 00:45:15;;;;;;;;;;;;;;;15.92;87.78;97179.84;30001;982;1882;-63
2022/05/13 00:45:46;;;;;;;;;;;;;;;15.91;87.90;97179.03;30001;982;1877;-65
2022/05/13 00:46:21;;;;;;;;;;;;;;;15.93;87.47;97182.25;30001;982;1882;-65
2022/05/13 00:46:52;;;;;;;;;;;;;;;15.95;87.26;97173.69;30001;982;1877;-64
2022/05/13 00:47:22;;;;;;;;;;;;;;;15.96;87.27;97178.84;30001;983;1868;-65
2022/05/13 00:47:53;;;;;;;;;;;;;;;15.97;87.15;97179.66;30001;983;1868;-64
2022/05/13 00:48:25;;;;;;;;;;;;;;;15.96;86.95;97183.53;30001;983;1881;-65
2022/05/13 00:48:58;;;;;;;;;;;;;;;15.96;87.81;97186.25;30001;983;1877;-65
2022/05/13 00:49:31;;;;;;;;;;;;;;;15.95;87.92;97179.16;30001;983;1881;-65
2022/05/13 00:50:03;;;;;;;;;;;;;;;15.94;87.76;97183.06;30001;983;1877;-66
2022/05/13 00:50:35;;;;;;;;;;;;;;;15.94;87.59;97183.06;30001;983;1881;-65
2022/05/13 00:51:08;;;;;;;;;;;;;;;15.93;88.01;97178.72;30001;983;1864;-54
2022/05/13 00:51:41;;;;;;;;;;;;;;;15.92;87.74;97179.84;30001;982;1873;-63
2022/05/13 00:52:12;;;;;;;;;;;;;;;15.91;87.82;97179.03;30001;982;1877;-66
2022/05/13 00:52:49;;;;;;;;;;;;;;;15.90;87.69;97185.62;30001;982;1882;-63
2022/05/13 00:53:20;;;;;;;;;;;;;;;15.91;87.90;97184.50;30001;982;1878;-65
2022/05/13 00:53:52;;;;;;;;;;;;;;;15.91;87.78;97179.03;30001;983;1881;-64
2022/05/13 00:54:23;;;;;;;;;;;;;;;15.93;87.49;97182.25;30001;983;1877;-65
2022/05/13 00:54:55;;;;;;;;;;;;;;;15.92;86.93;97183.38;30001;983;1881;-63
2022/05/13 00:55:37;;;;;;;;;;;;;;;15.92;86.92;97175.16;30001;983;1877;-64
2022/05/13 00:56:08;;;;;;;;;;;;;;;15.93;87.07;97176.78;30001;983;1868;-65
2022/05/13 00:56:42;;;;;;;;;;;;;;;15.92;87.11;97169.69;30001;983;1868;-64
2022/05/13 00:57:14;;;;;;;;;;;;;;;15.92;87.00;97172.44;30001;983;1882;-64
2022/05/13 00:57:46;;;;;;;;;;;;;;;15.92;87.11;97171.63;30001;983;1877;-65
2022/05/13 00:58:17;;;;;;;;;;;;;;;15.90;87.39;97174.69;30001;983;1882;-54
2022/05/13 00:58:51;;;;;;;;;;;;;;;15.91;87.21;97172.75;30001;984;1868;-65
2022/05/13 00:59:25;;;;;;;;;;;;;;;15.91;86.86;97172.75;30001;982;1882;-64
2022/05/13 00:59:56;;;;;;;;;;;;;;;15.90;87.15;97180.16;30001;982;1877;-64
2022/05/13 01:00:28;;;;;;;;;;;;;;;15.93;86.80;97176.78;30001;982;1882;-66
2022/05/13 01:00:59;;;;;;;;;;;;;;;15.94;86.93;97172.87;30001;982;1877;-66
2022/05/13 01:01:29;;;;;;;;;;;;;;;15.98;86.21;97176.59;30001;983;1868;-64
2022/05/13 01:02:00;;;;;;;;;;;;;;;16.00;85.84;97177.09;30001;983;1868;-64
2022/05/13 01:02:33;;;;;;;;;;;;;;;16.01;85.41;97178.69;30001;983;1881;-64
2022/05/13 01:03:05;;;;;;;;;;;;;;;16.02;86.24;97176.78;30001;983;1877;-64
2022/05/13 01:03:37;;;;;;;;;;;;;;;15.99;87.34;97167.25;30001;983;1881;-63
2022/05/13 01:04:09;;;;;;;;;;;;;;;15.98;87.16;97171.13;30001;983;1877;-65
2022/05/13 01:04:40;;;;;;;;;;;;;;;15.96;87.09;97170.63;30001;983;1882;-64
2022/05/13 01:05:12;;;;;;;;;;;;;;;15.96;86.87;97176.13;30001;983;1877;-64
2022/05/13 01:05:47;;;;;;;;;;;;;;;15.94;86.94;97175.63;30001;983;1882;-64
2022/05/13 01:06:21;;;;;;;;;;;;;;;15.94;87.08;97166.66;30001;983;1877;-63
2022/05/13 01:06:53;;;;;;;;;;;;;;;15.92;87.40;97169.69;30001;982;1868;-64
2022/05/13 01:07:24;;;;;;;;;;;;;;;15.91;87.25;97168.09;30001;982;1869;-65
2022/05/13 01:07:55;;;;;;;;;;;;;;;15.91;87.36;97168.09;30001;982;1882;-64
2022/05/13 01:08:27;;;;;;;;;;;;;;;15.90;87.49;97171.94;30001;982;1864;-63
2022/05/13 01:08:58;;;;;;;;;;;;;;;15.88;87.20;97167.91;30001;983;1872;-64
2022/05/13 01:09:31;;;;;;;;;;;;;;;15.88;87.71;97163.25;30001;983;1876;-65
2022/05/13 01:10:04;;;;;;;;;;;;;;;15.88;87.27;97168.72;30001;983;1881;-64
2022/05/13 01:10:37;;;;;;;;;;;;;;;15.88;86.98;97163.25;30001;983;1877;-65
2022/05/13 01:11:14;;;;;;;;;;;;;;;15.89;86.98;97166.78;30001;983;1881;-65
2022/05/13 01:11:51;;;;;;;;;;;;;;;15.90;86.88;97166.47;30001;983;1877;-65
2022/05/13 01:12:24;;;;;;;;;;;;;;;15.88;86.82;97168.72;30001;983;1881;-64
2022/05/13 01:12:57;;;;;;;;;;;;;;;15.89;86.84;97164.06;30001;983;1877;-64
2022/05/13 01:13:29;;;;;;;;;;;;;;;15.90;86.40;97166.47;30001;983;1869;-63
2022/05/13 01:14:03;;;;;;;;;;;;;;;15.89;86.57;97167.59;30001;982;1869;-66
2022/05/13 01:14:35;;;;;;;;;;;;;;;15.90;86.48;97165.66;30001;982;1882;-64
2022/05/13 01:15:08;;;;;;;;;;;;;;;15.90;86.67;97166.47;30001;982;1878;-64
2022/05/13 01:15:41;;;;;;;;;;;;;;;15.91;86.66;97162.62;30001;982;1882;-64
2022/05/13 01:16:12;;;;;;;;;;;;;;;15.91;86.36;97162.62;30001;982;1878;-66
2022/05/13 01:18:30;;;;;;;;;;;;;;;15.88;86.74;97155.03;30001;983;1881;-65
2022/05/13 01:19:03;;;;;;;;;;;;;;;15.87;86.70;97153.44;30001;983;1864;-65
2022/05/13 01:19:36;;;;;;;;;;;;;;;15.87;86.84;97153.44;30001;987;1873;-64
2022/05/13 01:20:11;;;;;;;;;;;;;;;15.87;87.42;97156.16;30001;983;1877;-65
2022/05/13 01:20:50;;;;;;;;;;;;;;;15.86;87.28;97149.09;30001;983;1882;-65
2022/05/13 01:21:25;;;;;;;;;;;;;;;15.85;87.08;97157.59;30001;983;1873;-64
2022/05/13 01:21:58;;;;;;;;;;;;;;;15.84;87.31;97151.34;30001;982;1882;-64
2022/05/13 01:22:29;;;;;;;;;;;;;;;15.84;87.31;97156.81;30001;982;1877;-64
2022/05/13 01:23:04;;;;;;;;;;;;;;;15.84;87.33;97154.06;30001;982;1882;-64
2022/05/13 01:23:40;;;;;;;;;;;;;;;15.83;87.37;97160.66;30001;982;1838;-64
2022/05/13 01:24:11;;;;;;;;;;;;;;;15.83;87.82;97154.38;30001;983;1868;-63
2022/05/13 01:24:43;;;;;;;;;;;;;;;15.83;88.17;97154.38;30001;983;1868;-62
2022/05/13 01:25:17;;;;;;;;;;;;;;;15.82;89.34;97153.59;30001;983;1881;-62
2022/05/13 01:25:49;;;;;;;;;;;;;;;15.82;89.58;97158.25;30001;983;1877;-55
2022/05/13 01:26:25;;;;;;;;;;;;;;;15.78;89.47;97155.34;30001;983;1868;-63
2022/05/13 01:26:56;;;;;;;;;;;;;;;15.78;89.32;97154.53;30001;983;1868;-62
2022/05/13 01:27:27;;;;;;;;;;;;;;;15.77;90.59;97144.72;30001;983;1881;-62
2022/05/13 01:28:08;;;;;;;;;;;;;;;15.74;91.18;97144.22;30001;983;1877;-60
2022/05/13 01:28:41;;;;;;;;;;;;;;;15.72;90.93;97142.94;30001;982;1882;-61
2022/05/13 01:29:12;;;;;;;;;;;;;;;15.71;90.71;97141.31;30001;982;1877;-59
2022/05/13 01:29:43;;;;;;;;;;;;;;;15.69;90.56;97136.16;30001;982;1882;-61
2022/05/13 01:30:20;;;;;;;;;;;;;;;15.69;90.53;97138.91;30001;982;1878;-60
2022/05/13 01:30:53;;;;;;;;;;;;;;;15.69;90.49;97135.37;30001;982;1882;-59
2022/05/13 01:31:25;;;;;;;;;;;;;;;15.69;90.46;97130.69;30001;982;1864;-54
2022/05/13 01:31:57;;;;;;;;;;;;;;;15.69;90.38;97132.63;30001;983;1872;-59
2022/05/13 01:32:28;;;;;;;;;;;;;;;15.68;92.34;97131.03;30001;983;1877;-58
2022/05/13 01:32:59;;;;;;;;;;;;;;;15.65;92.61;97128.91;30001;983;1881;-60
2022/05/13 01:33:31;;;;;;;;;;;;;;;15.63;92.66;97128.44;30001;983;1877;-54
2022/05/13 01:34:13;;;;;;;;;;;;;;;15.62;93.11;97132.28;30001;983;1868;-61
2022/05/13 01:34:44;;;;;;;;;;;;;;;15.60;92.40;97140.81;30001;983;1868;-60
2022/05/13 01:35:17;;;;;;;;;;;;;;;15.58;92.34;97143.09;30001;983;1881;-61
2022/05/13 01:35:49;;;;;;;;;;;;;;;15.58;92.09;97142.28;30001;982;1877;-60
2022/05/13 01:36:21;;;;;;;;;;;;;;;15.57;92.21;97144.22;30001;982;1882;-61
2022/05/13 01:36:54;;;;;;;;;;;;;;;15.57;92.19;97151.63;30001;982;1877;-60
2022/05/13 01:37:26;;;;;;;;;;;;;;;15.57;92.24;97148.88;30001;982;1882;-60
2022/05/13 01:37:56;;;;;;;;;;;;;;;15.56;92.46;97156.28;30001;986;1878;-62
2022/05/13 01:38:29;;;;;;;;;;;;;;;15.54;92.46;97157.69;30001;982;1882;-61
2022/05/13 01:39:00;;;;;;;;;;;;;;;15.53;92.69;97158.81;30001;982;1864;-63
2022/05/13 01:39:32;;;;;;;;;;;;;;;15.53;92.77;97156.06;30001;983;1872;-62
2022/05/13 01:40:04;;;;;;;;;;;;;;;15.51;92.73;97163.78;30001;983;1877;-62
2022/05/13 01:40:35;;;;;;;;;;;;;;;15.49;92.65;97155.09;30001;983;1881;-62
2022/05/13 01:41:09;;;;;;;;;;;;;;;15.49;93.25;97155.09;30001;983;1877;-64
2022/05/13 01:41:42;;;;;;;;;;;;;;;15.47;93.64;97162.81;30001;983;1868;-63
2022/05/13 01:42:12;;;;;;;;;;;;;;;15.45;94.01;97152.19;30001;983;1868;-63
2022/05/13 01:42:43;;;;;;;;;;;;;;;15.43;94.12;97157.97;30001;983;1881;-62
2022/05/13 01:43:14;;;;;;;;;;;;;;;15.41;94.16;97153.94;30001;983;1877;-64
2022/05/13 01:43:46;;;;;;;;;;;;;;;15.41;94.48;97146.53;30001;982;1869;-63
2022/05/13 01:44:17;;;;;;;;;;;;;;;15.40;94.35;97147.66;30001;982;1856;-63
2022/05/13 01:44:48;;;;;;;;;;;;;;;15.39;93.96;97148.78;30001;982;1882;-63
2022/05/13 01:45:19;;;;;;;;;;;;;;;15.39;94.90;97146.06;30001;982;1877;-63
2022/05/13 01:45:50;;;;;;;;;;;;;;;15.36;95.08;97146.69;30001;983;1881;-65
2022/05/13 01:46:22;;;;;;;;;;;;;;;15.35;95.19;97145.06;30001;983;1877;-65
2022/05/13 01:46:53;;;;;;;;;;;;;;;15.35;95.08;97145.06;30001;983;1881;-66
2022/05/13 01:47:24;;;;;;;;;;;;;;;15.33;96.15;97152.78;30001;983;1877;-66
2022/05/13 01:47:55;;;;;;;;;;;;;;;15.31;96.01;97152.31;30001;983;1881;-67
2022/05/13 01:48:27;;;;;;;;;;;;;;;15.31;96.02;97157.75;30001;983;1877;-67
2022/05/13 01:48:57;;;;;;;;;;;;;;;15.30;95.78;97155.34;30001;983;1868;-66
2022/05/13 01:49:28;;;;;;;;;;;;;;;15.28;95.79;97150.19;30001;983;1868;-65
2022/05/13 01:49:59;;;;;;;;;;;;;;;15.26;95.85;97152.44;30001;983;1869;-66
2022/05/13 01:50:30;;;;;;;;;;;;;;;15.27;95.74;97154.06;30001;983;1868;-65
2022/05/13 01:51:01;;;;;;;;;;;;;;;15.26;95.86;97157.91;30001;982;1881;-66
2022/05/13 01:51:32;;;;;;;;;;;;;;;15.25;95.70;97155.47;30001;983;1877;-67
2022/05/13 01:52:03;;;;;;;;;;;;;;;15.23;95.69;97161.28;30001;982;1882;-67
2022/05/13 01:52:34;;;;;;;;;;;;;;;15.24;95.70;97170.31;30001;982;1877;-67
2022/05/13 01:53:05;;;;;;;;;;;;;;;15.23;95.77;97169.50;30001;982;1882;-66
2022/05/13 01:53:36;;;;;;;;;;;;;;;15.22;95.37;97170.63;30001;983;1877;-67
2022/05/13 01:54:07;;;;;;;;;;;;;;;15.22;95.55;97167.88;30001;983;1881;-63
2022/05/13 01:54:38;;;;;;;;;;;;;;;15.20;95.85;97169.31;30001;983;1877;-67
2022/05/13 01:55:09;;;;;;;;;;;;;;;15.18;95.65;97177.84;30001;983;1868;-67
2022/05/13 01:55:42;;;;;;;;;;;;;;;15.17;95.65;97173.50;30001;983;1868;-65
2022/05/13 01:56:14;;;;;;;;;;;;;;;15.15;95.38;97173.00;30001;983;1881;-66
2022/05/13 01:56:44;;;;;;;;;;;;;;;15.14;95.37;97171.38;30001;983;1877;-66
2022/05/13 01:57:15;;;;;;;;;;;;;;;15.14;95.76;97179.59;30001;983;1881;-65
2022/05/13 01:57:46;;;;;;;;;;;;;;;15.11;96.12;97177.47;30001;983;1877;-65
2022/05/13 01:58:20;;;;;;;;;;;;;;;15.09;96.01;97174.25;30001;983;1882;-64
2022/05/13 01:58:50;;;;;;;;;;;;;;;15.06;96.36;97175.69;30001;982;1877;-63
2022/05/13 01:59:21;;;;;;;;;;;;;;;15.05;96.01;97179.53;30001;982;1882;-65
2022/05/13 01:59:53;;;;;;;;;;;;;;;15.04;95.97;97182.59;30001;982;1878;-59
2022/05/13 02:00:25;;;;;;;;;;;;;;;15.06;96.18;97180.34;30001;982;1869;-60
2022/05/13 02:00:58;;;;;;;;;;;;;;;15.06;96.07;97181.16;30001;983;1868;-58
2022/05/13 02:01:29;;;;;;;;;;;;;;;15.07;95.61;97181.97;30001;983;1881;-62
2022/05/13 02:02:00;;;;;;;;;;;;;;;15.06;95.55;97186.63;30001;983;1877;-63
2022/05/13 02:03:44;;;;;;;;;;;;;;;15.06;95.26;97180.34;30001;983;1881;-63
2022/05/13 02:04:12;;;;;;;;;;;;;;;15.00;95.81;97176.13;30001;983;1788;-65
2022/05/13 02:04:43;;;;;;;;;;;;;;;14.99;95.84;97179.97;30001;983;1877;-64
2022/05/13 02:05:14;;;;;;;;;;;;;;;14.98;95.40;97178.38;30001;983;1881;-67
2022/05/13 02:05:45;;;;;;;;;;;;;;;14.96;95.83;97186.06;30001;983;1864;-65
2022/05/13 02:06:20;;;;;;;;;;;;;;;14.95;96.47;97179.81;30001;982;1839;-64
2022/05/13 02:06:50;;;;;;;;;;;;;;;14.93;96.90;97181.22;30001;982;1877;-63
2022/05/13 02:07:21;;;;;;;;;;;;;;;14.92;96.69;97180.44;30001;982;1882;-64
2022/05/13 02:07:52;;;;;;;;;;;;;;;14.91;97.13;97183.47;30001;982;1877;-63
2022/05/13 02:08:24;;;;;;;;;;;;;;;14.89;96.81;97180.28;30001;982;1869;-60
2022/05/13 02:08:58;;;;;;;;;;;;;;;14.89;97.08;97181.09;30001;983;1868;-63
2022/05/13 02:09:29;;;;;;;;;;;;;;;14.87;96.95;97177.84;30001;983;1881;-62
2022/05/13 02:10:01;;;;;;;;;;;;;;;14.87;96.84;97177.03;30001;983;1877;-61
2022/05/13 02:10:34;;;;;;;;;;;;;;;14.87;96.60;97191.50;30001;983;1881;-62
2022/05/13 02:11:05;;;;;;;;;;;;;;;14.87;96.92;97187.97;30001;983;1877;-62
2022/05/13 02:11:36;;;;;;;;;;;;;;;14.86;96.84;97189.91;30001;983;1881;-63
2022/05/13 02:12:08;;;;;;;;;;;;;;;14.87;97.02;97198.91;30001;983;1877;-61
2022/05/13 02:12:38;;;;;;;;;;;;;;;14.86;97.07;97194.56;30001;983;1882;-62
2022/05/13 02:13:10;;;;;;;;;;;;;;;14.87;97.05;97198.91;30001;983;1877;-60
2022/05/13 02:13:41;;;;;;;;;;;;;;;14.86;96.63;97198.09;30001;982;1868;-61
2022/05/13 02:14:13;;;;;;;;;;;;;;;14.86;96.86;97202.75;30001;982;1869;-60
2022/05/13 02:14:44;;;;;;;;;;;;;;;14.87;96.84;97199.72;30001;982;1882;-52
2022/05/13 02:15:15;;;;;;;;;;;;;;;14.88;97.11;97211.44;30001;982;1878;-61
2022/05/13 02:15:46;;;;;;;;;;;;;;;14.87;96.82;97209.84;30001;982;1882;-58
2022/05/13 02:16:17;;;;;;;;;;;;;;;14.89;96.80;97207.59;30001;983;1877;-55
2022/05/13 02:16:48;;;;;;;;;;;;;;;14.89;96.50;97207.59;30001;983;1881;-58
2022/05/13 02:17:20;;;;;;;;;;;;;;;14.91;96.48;97206.13;30001;983;1877;-57
2022/05/13 02:17:54;;;;;;;;;;;;;;;14.95;96.39;97200.84;30001;983;1881;-56
2022/05/13 02:18:27;;;;;;;;;;;;;;;14.95;95.86;97198.94;30001;983;1877;-59
2022/05/13 02:18:58;;;;;;;;;;;;;;;14.95;95.74;97187.19;30001;983;1868;-58
2022/05/13 02:19:29;;;;;;;;;;;;;;;14.93;95.98;97186.69;30001;983;1868;-59
2022/05/13 02:20:00;;;;;;;;;;;;;;;14.91;95.81;97180.75;30001;983;1881;-60
2022/05/13 02:20:31;;;;;;;;;;;;;;;14.89;95.85;97180.28;30001;982;1877;-58
2022/05/13 02:21:02;;;;;;;;;;;;;;;14.87;95.50;97179.78;30001;982;1882;-60
2022/05/13 02:21:33;;;;;;;;;;;;;;;14.87;95.75;97185.25;30001;982;1877;-58
2022/05/13 02:22:04;;;;;;;;;;;;;;;14.87;96.08;97174.31;30001;982;1882;-60
2022/05/13 02:22:35;;;;;;;;;;;;;;;14.88;95.88;97167.72;30001;982;1878;-59
2022/05/13 02:23:06;;;;;;;;;;;;;;;14.87;96.53;97160.66;30001;982;1882;-59
2022/05/13 02:23:37;;;;;;;;;;;;;;;14.86;96.79;97165.31;30001;983;1863;-60
2022/05/13 02:24:08;;;;;;;;;;;;;;;14.83;96.96;97160.47;30001;983;1872;-58
2022/05/13 02:24:39;;;;;;;;;;;;;;;14.81;97.16;97156.44;30001;983;1877;-58
2022/05/13 02:25:10;;;;;;;;;;;;;;;14.78;97.31;97148.88;30001;983;1816;-57
2022/05/13 02:25:42;;;;;;;;;;;;;;;14.76;97.92;97171.03;30001;983;1877;-56
2022/05/13 02:26:16;;;;;;;;;;;;;;;14.79;97.85;97177.81;30001;983;1881;-60
2022/05/13 02:26:47;;;;;;;;;;;;;;;14.84;97.66;97185.88;30001;983;1864;-67
2022/05/13 02:27:17;;;;;;;;;;;;;;;14.86;96.94;97191.81;30001;983;1860;-58
2022/05/13 02:27:48;;;;;;;;;;;;;;;14.85;96.34;97195.69;30001;982;1877;-57
2022/05/13 02:28:19;;;;;;;;;;;;;;;14.82;96.24;97188.09;30001;959;1837;-59
2022/05/13 02:28:50;;;;;;;;;;;;;;;14.80;96.35;97176.69;30001;982;1868;-56
2022/05/13 02:29:21;;;;;;;;;;;;;;;14.78;96.02;97181.66;30001;982;1882;-58
2022/05/13 02:29:52;;;;;;;;;;;;;;;14.75;96.20;97175.69;30001;982;1878;-57
2022/05/13 02:30:22;;;;;;;;;;;;;;;14.71;95.72;97177.44;30001;982;1882;-59
2022/05/13 02:30:54;;;;;;;;;;;;;;;14.68;95.93;97180.78;30001;982;1878;-58
2022/05/13 02:31:24;;;;;;;;;;;;;;;14.67;95.93;97183.81;30001;983;1881;-58
2022/05/13 02:31:55;;;;;;;;;;;;;;;14.67;95.94;97178.38;30001;983;1863;-59
2022/05/13 02:32:26;;;;;;;;;;;;;;;14.66;95.92;97171.28;30001;983;1872;-60
2022/05/13 02:32:57;;;;;;;;;;;;;;;14.65;96.15;97173.22;30001;983;1778;-58
2022/05/13 02:33:29;;;;;;;;;;;;;;;14.65;96.24;97172.41;30001;983;1881;-59
2022/05/13 02:34:00;;;;;;;;;;;;;;;14.64;96.24;97168.88;30001;983;1877;-57
2022/05/13 02:34:31;;;;;;;;;;;;;;;14.64;96.28;97168.88;30001;983;1882;-58
2022/05/13 02:35:02;;;;;;;;;;;;;;;14.64;96.51;97163.41;30001;983;1864;-57
2022/05/13 02:35:33;;;;;;;;;;;;;;;14.63;96.45;97161.78;30001;982;1873;-57
2022/05/13 02:36:08;;;;;;;;;;;;;;;14.61;96.99;97164.03;30001;982;1877;-57
2022/05/13 02:36:39;;;;;;;;;;;;;;;14.61;96.38;97164.03;30001;982;1882;-57
2022/05/13 02:37:10;;;;;;;;;;;;;;;14.59;96.36;97166.25;30001;982;1877;-57
2022/05/13 02:37:41;;;;;;;;;;;;;;;14.57;96.28;97168.50;30001;982;1869;-58
2022/05/13 02:38:14;;;;;;;;;;;;;;;14.57;96.09;97163.03;30001;982;1869;-59
2022/05/13 02:38:45;;;;;;;;;;;;;;;14.56;96.11;97172.34;30001;983;1881;-57
2022/05/13 02:39:15;;;;;;;;;;;;;;;14.54;96.08;97169.16;30001;983;1877;-59
2022/05/13 02:39:46;;;;;;;;;;;;;;;14.55;95.85;97169.94;30001;983;1881;-58
2022/05/13 02:40:17;;;;;;;;;;;;;;;14.54;96.33;97180.06;30001;983;1877;-58
2022/05/13 02:41:36;;;;;;;;;;;;;;;14.52;96.65;97182.31;30001;983;1877;-57
2022/05/13 02:42:08;;;;;;;;;;;;;;;14.50;96.78;97176.34;30001;983;1868;-56
2022/05/13 02:42:38;;;;;;;;;;;;;;;14.50;97.02;97179.06;30001;983;1868;-57
2022/05/13 02:43:09;;;;;;;;;;;;;;;14.49;97.27;97172.00;30001;982;1881;-58
2022/05/13 02:43:50;;;;;;;;;;;;;;;14.50;97.23;97175.53;30001;982;1877;-57
2022/05/13 02:44:21;;;;;;;;;;;;;;;14.48;97.71;97180.50;30001;982;1868;-58
2022/05/13 02:44:52;;;;;;;;;;;;;;;14.47;97.84;97171.50;30001;982;1869;-58
2022/05/13 02:45:23;;;;;;;;;;;;;;;14.46;97.79;97183.53;30001;982;1882;-57
2022/05/13 02:45:55;;;;;;;;;;;;;;;14.45;98.20;97176.47;30001;982;1877;-58
2022/05/13 02:46:27;;;;;;;;;;;;;;;14.44;97.74;97176.78;30001;983;1881;-60
2022/05/13 02:46:58;;;;;;;;;;;;;;;14.43;98.51;97178.69;30001;983;1877;-59
2022/05/13 02:47:28;;;;;;;;;;;;;;;14.42;98.46;97188.00;30001;983;1881;-60
2022/05/13 02:47:59;;;;;;;;;;;;;;;14.40;98.47;97174.63;30001;983;1877;-60
2022/05/13 02:48:31;;;;;;;;;;;;;;;14.39;98.75;97173.00;30001;983;1881;-59
2022/05/13 02:49:01;;;;;;;;;;;;;;;14.39;98.50;97172.22;30001;983;1877;-59
2022/05/13 02:49:33;;;;;;;;;;;;;;;14.38;98.68;97178.78;30001;983;1868;-60
2022/05/13 02:50:19;;;;;;;;;;;;;;;14.38;98.71;97176.06;30001;983;1869;-61
2022/05/13 02:50:50;;;;;;;;;;;;;;;14.36;98.91;97161.91;30001;982;1881;-59
2022/05/13 02:51:21;;;;;;;;;;;;;;;14.36;98.97;97167.38;30001;982;1877;-60
2022/05/13 02:51:52;;;;;;;;;;;;;;;14.36;98.88;97170.09;30001;982;1882;-59
2022/05/13 02:52:22;;;;;;;;;;;;;;;14.36;99.05;97167.38;30001;982;1877;-60
2022/05/13 02:52:53;;;;;;;;;;;;;;;14.35;98.94;97160.28;30001;983;1881;-59
2022/05/13 02:53:25;;;;;;;;;;;;;;;14.33;98.92;97157.87;30001;983;1877;-58
2022/05/13 02:53:56;;;;;;;;;;;;;;;14.34;98.94;97164.13;30001;983;1868;-59
2022/05/13 02:54:27;;;;;;;;;;;;;;;14.33;99.20;97166.06;30001;983;1868;-58
2022/05/13 02:54:58;;;;;;;;;;;;;;;14.33;99.05;97163.34;30001;983;1881;-57